X  Tanca Dades meteorològiques de l'aviació METAR     EHRD Rotterdam The Hague Airport
Temperatura
25°C Temperatura
18°C Rosada
65% Humitat



Vent
13 KM/H
8 MPH
4 M/S
7 NUS



230°
SO
Condicions actuals

Sense núvols Sense núvols
Pressió 1007.92 (hPa) - 29.76 (inHg)
Visibilitat 6.2 (milla) - 10 (km)
Aeroport
Codi aeroport EHRD

Ubicació: Rotterdam The Hague Airport
Distància: 14 (km)

Metar:
EHRD 161155Z AUTO 23007KT 180V290 9999 NSC 25/18 Q1008 NOSIG

Temps: 16-08-2022 13:55 CEST